createdAt,value
2019-01-26T00:00:02.642Z,82.85
2019-01-26T00:01:07.596Z,82.61
2019-01-26T00:02:12.260Z,83.39
2019-01-26T00:03:15.547Z,83.61
2019-01-26T00:04:18.824Z,83.81
2019-01-26T00:05:22.171Z,83.18
2019-01-26T00:06:25.555Z,83.19
2019-01-26T00:07:28.845Z,82.99
2019-01-26T00:08:32.200Z,83.33
2019-01-26T00:09:35.502Z,83.45
2019-01-26T00:10:38.773Z,82.83
2019-01-26T00:11:42.105Z,82.54
2019-01-26T00:12:45.400Z,82.15
2019-01-26T00:13:48.685Z,81.95
2019-01-26T00:14:51.967Z,81.80
2019-01-26T00:15:55.250Z,81.87
2019-01-26T00:16:58.569Z,82.51
2019-01-26T00:18:01.885Z,83.37
2019-01-26T00:19:05.170Z,83.46
2019-01-26T00:20:09.512Z,83.40
2019-01-26T00:21:12.797Z,83.12
2019-01-26T00:22:16.127Z,82.66
2019-01-26T00:23:19.417Z,82.51
2019-01-26T00:24:22.705Z,82.65
2019-01-26T00:25:25.991Z,82.60
2019-01-26T00:26:29.272Z,82.62
2019-01-26T00:27:32.592Z,82.45
2019-01-26T00:28:35.884Z,82.12
2019-01-26T00:29:39.229Z,82.08
2019-01-26T00:30:42.514Z,81.85
2019-01-26T00:31:45.808Z,82.26
2019-01-26T00:32:49.195Z,82.79
2019-01-26T00:33:52.477Z,82.85
2019-01-26T00:34:55.766Z,82.93
2019-01-26T00:35:59.061Z,82.84
2019-01-26T00:37:02.344Z,82.83
2019-01-26T00:38:05.657Z,82.92
2019-01-26T00:39:09.002Z,83.00
2019-01-26T00:40:12.755Z,82.55
2019-01-26T00:41:16.045Z,82.39
2019-01-26T00:42:19.316Z,82.31
2019-01-26T00:43:22.637Z,82.19
2019-01-26T00:44:26.017Z,82.57
2019-01-26T00:45:29.313Z,82.25
2019-01-26T00:46:32.912Z,82.20
2019-01-26T00:47:36.275Z,82.30
2019-01-26T00:48:39.590Z,82.54
2019-01-26T00:49:42.881Z,82.66
2019-01-26T00:50:46.162Z,83.34
2019-01-26T00:51:49.444Z,83.72
2019-01-26T00:52:52.794Z,83.71
2019-01-26T00:53:56.412Z,83.33
2019-01-26T00:54:59.687Z,83.05
2019-01-26T00:56:03.046Z,82.42
2019-01-26T00:57:06.324Z,82.20
2019-01-26T00:58:09.676Z,82.21
2019-01-26T00:59:12.992Z,83.21
2019-01-26T01:00:21.213Z,83.73
2019-01-26T01:01:24.770Z,83.72
2019-01-26T01:02:28.182Z,83.63
2019-01-26T01:03:31.536Z,82.97
2019-01-26T01:04:34.879Z,82.48
2019-01-26T01:05:38.242Z,82.50
2019-01-26T01:06:41.522Z,81.68
2019-01-26T01:07:44.878Z,81.67
2019-01-26T01:08:48.168Z,81.25
2019-01-26T01:09:51.501Z,81.06
2019-01-26T01:10:54.783Z,81.06
2019-01-26T01:11:58.066Z,81.48
2019-01-26T01:13:01.428Z,81.83
2019-01-26T01:14:04.706Z,81.81
2019-01-26T01:15:14.367Z,81.16
2019-01-26T01:16:17.958Z,81.32
2019-01-26T01:17:21.651Z,81.72
2019-01-26T01:18:24.978Z,81.91
2019-01-26T01:19:28.262Z,81.74
2019-01-26T01:20:31.551Z,81.21
2019-01-26T01:21:34.910Z,81.34
2019-01-26T01:22:38.189Z,80.96
2019-01-26T01:23:41.539Z,80.98
2019-01-26T01:24:44.925Z,80.88
2019-01-26T01:25:48.236Z,81.39
2019-01-26T01:26:51.521Z,81.04
2019-01-26T01:27:55.115Z,80.76
2019-01-26T01:28:58.691Z,81.01
2019-01-26T01:30:01.978Z,81.08
2019-01-26T01:31:05.299Z,81.17
2019-01-26T01:32:08.591Z,81.02
2019-01-26T01:33:13.195Z,81.24
2019-01-26T01:34:16.697Z,80.79
2019-01-26T01:35:19.971Z,80.95
2019-01-26T01:36:23.320Z,81.06
2019-01-26T01:37:26.559Z,81.25
2019-01-26T01:38:29.836Z,81.69
2019-01-26T01:39:33.285Z,81.22
2019-01-26T01:40:36.664Z,81.21
2019-01-26T01:41:39.964Z,81.56
2019-01-26T01:42:43.251Z,81.59
2019-01-26T01:43:46.533Z,81.45
2019-01-26T01:44:49.828Z,81.58
2019-01-26T01:45:53.113Z,81.52
2019-01-26T01:46:56.502Z,81.45
2019-01-26T01:47:59.782Z,81.54
2019-01-26T01:49:03.104Z,81.48
2019-01-26T01:50:08.321Z,81.64
2019-01-26T01:51:11.602Z,82.14
2019-01-26T01:52:15.271Z,82.28
2019-01-26T01:53:18.550Z,82.24
2019-01-26T01:54:22.210Z,82.23
2019-01-26T01:55:25.485Z,82.19
2019-01-26T01:56:28.830Z,82.34
2019-01-26T01:57:32.141Z,82.60
2019-01-26T01:58:35.424Z,81.84
2019-01-26T01:59:38.706Z,82.10
2019-01-26T02:00:41.991Z,81.89
2019-01-26T02:01:45.283Z,81.85
2019-01-26T02:02:48.602Z,81.65
2019-01-26T02:03:51.890Z,82.30
2019-01-26T02:04:55.191Z,81.78
2019-01-26T02:05:58.474Z,81.79
2019-01-26T02:07:01.757Z,81.95
2019-01-26T02:08:05.077Z,82.18
2019-01-26T02:09:08.931Z,82.30
2019-01-26T02:10:14.750Z,82.64
2019-01-26T02:11:18.036Z,82.49
2019-01-26T02:12:21.313Z,82.31
2019-01-26T02:13:24.620Z,82.20
2019-01-26T02:14:27.890Z,82.11
2019-01-26T02:15:31.237Z,82.05
2019-01-26T02:16:34.509Z,82.04
2019-01-26T02:17:37.787Z,81.70
2019-01-26T02:18:41.108Z,81.72
2019-01-26T02:19:44.391Z,81.98
2019-01-26T02:20:47.671Z,82.07
2019-01-26T02:21:51.021Z,82.09
2019-01-26T02:22:54.298Z,82.08
2019-01-26T02:23:57.625Z,81.74
2019-01-26T02:25:00.910Z,81.78
2019-01-26T02:26:04.229Z,81.47
2019-01-26T02:27:07.474Z,81.06
2019-01-26T02:28:10.760Z,81.21
2019-01-26T02:29:14.453Z,81.46
2019-01-26T02:30:20.374Z,81.02
2019-01-26T02:31:23.642Z,81.04
2019-01-26T02:32:26.922Z,81.28
2019-01-26T02:33:30.231Z,80.80
2019-01-26T02:34:33.545Z,80.98
2019-01-26T02:35:36.824Z,80.59
2019-01-26T02:36:40.179Z,80.17
2019-01-26T02:37:43.461Z,80.60
2019-01-26T02:38:46.732Z,80.11
2019-01-26T02:39:50.044Z,80.41
2019-01-26T02:40:53.319Z,80.05
2019-01-26T02:41:56.706Z,80.16
2019-01-26T02:42:59.984Z,80.11
2019-01-26T02:44:03.639Z,79.81
2019-01-26T02:45:08.564Z,79.86
2019-01-26T02:46:11.848Z,79.89
2019-01-26T02:47:15.132Z,79.69
2019-01-26T02:48:18.417Z,79.97
2019-01-26T02:49:22.109Z,79.34
2019-01-26T02:50:25.435Z,79.99
2019-01-26T02:51:28.786Z,79.71
2019-01-26T02:52:32.140Z,79.87
2019-01-26T02:53:35.416Z,80.12
2019-01-26T02:54:38.700Z,79.36
2019-01-26T02:55:42.011Z,78.97
2019-01-26T02:56:45.296Z,79.56
2019-01-26T02:57:48.949Z,78.98
2019-01-26T02:58:52.231Z,79.52
2019-01-26T02:59:55.521Z,79.37
2019-01-26T03:00:59.213Z,78.34
2019-01-26T03:02:02.557Z,78.85
2019-01-26T03:03:05.844Z,79.27
2019-01-26T03:04:09.128Z,79.18
2019-01-26T03:05:12.750Z,79.49
2019-01-26T03:06:16.459Z,78.90
2019-01-26T03:07:19.810Z,78.93
2019-01-26T03:08:23.076Z,79.48
2019-01-26T03:09:26.480Z,79.58
2019-01-26T03:10:29.758Z,79.39
2019-01-26T03:11:33.066Z,79.23
2019-01-26T03:12:36.492Z,78.89
2019-01-26T03:13:39.768Z,78.97
2019-01-26T03:14:43.070Z,78.51
2019-01-26T03:15:46.337Z,78.42
2019-01-26T03:16:49.644Z,78.80
2019-01-26T03:17:52.923Z,78.99
2019-01-26T03:18:56.195Z,79.06
2019-01-26T03:19:59.478Z,78.46
2019-01-26T03:21:02.758Z,78.33
2019-01-26T03:22:06.074Z,79.27
2019-01-26T03:23:09.346Z,78.95
2019-01-26T03:24:12.626Z,78.58
2019-01-26T03:25:16.381Z,78.66
2019-01-26T03:26:19.654Z,77.83
2019-01-26T03:27:22.973Z,78.37
2019-01-26T03:28:26.317Z,78.69
2019-01-26T03:29:29.604Z,78.91
2019-01-26T03:30:32.888Z,78.32
2019-01-26T03:31:36.220Z,78.77
2019-01-26T03:32:39.498Z,78.47
2019-01-26T03:33:42.770Z,78.24
2019-01-26T03:34:46.037Z,78.81
2019-01-26T03:35:49.404Z,78.67
2019-01-26T03:36:52.734Z,78.14
2019-01-26T03:37:56.067Z,77.35
2019-01-26T03:38:59.352Z,77.69
2019-01-26T03:40:02.616Z,77.61
2019-01-26T03:41:05.996Z,77.40
2019-01-26T03:42:09.627Z,77.21
2019-01-26T03:43:12.945Z,77.35
2019-01-26T03:44:16.223Z,77.62
2019-01-26T03:45:19.567Z,77.77
2019-01-26T03:46:23.204Z,76.97
2019-01-26T03:47:26.628Z,77.53
2019-01-26T03:48:30.021Z,77.14
2019-01-26T03:49:33.298Z,76.66
2019-01-26T03:50:36.570Z,76.04
2019-01-26T03:51:39.859Z,76.82
2019-01-26T03:52:43.142Z,76.62
2019-01-26T03:53:46.433Z,76.99
2019-01-26T03:54:49.714Z,77.19
2019-01-26T03:55:52.999Z,77.38
2019-01-26T03:56:56.279Z,77.04
2019-01-26T03:57:59.580Z,76.52
2019-01-26T03:59:02.959Z,76.94
2019-01-26T04:00:24.089Z,76.65
2019-01-26T04:01:27.377Z,75.42
2019-01-26T04:02:30.652Z,76.17
2019-01-26T04:03:33.930Z,76.18
2019-01-26T04:04:37.252Z,76.06
2019-01-26T04:05:40.533Z,76.22
2019-01-26T04:06:43.815Z,76.52
2019-01-26T04:07:47.091Z,75.31
2019-01-26T04:08:50.381Z,76.29
2019-01-26T04:09:53.714Z,75.76
2019-01-26T04:10:57.000Z,75.43
2019-01-26T04:12:00.290Z,75.62
2019-01-26T04:13:03.894Z,76.09
2019-01-26T04:14:07.174Z,76.33
2019-01-26T04:15:20.283Z,76.79
2019-01-26T04:16:23.576Z,77.02
2019-01-26T04:17:26.949Z,76.72
2019-01-26T04:18:30.234Z,76.95
2019-01-26T04:19:33.495Z,76.36
2019-01-26T04:20:36.821Z,76.17
2019-01-26T04:21:40.102Z,76.11
2019-01-26T04:22:43.384Z,76.32
2019-01-26T04:23:46.671Z,75.77
2019-01-26T04:24:49.947Z,75.46
2019-01-26T04:25:53.238Z,75.88
2019-01-26T04:26:56.541Z,75.72
2019-01-26T04:27:59.810Z,76.02
2019-01-26T04:29:03.164Z,75.78
2019-01-26T04:30:09.975Z,75.99
2019-01-26T04:31:13.314Z,75.61
2019-01-26T04:32:16.601Z,75.79
2019-01-26T04:33:19.884Z,75.04
2019-01-26T04:34:23.234Z,74.96
2019-01-26T04:35:26.518Z,75.33
2019-01-26T04:36:29.842Z,74.26
2019-01-26T04:37:33.123Z,75.27
2019-01-26T04:38:36.403Z,75.70
2019-01-26T04:39:39.692Z,75.09
2019-01-26T04:40:42.970Z,75.30
2019-01-26T04:41:46.282Z,74.78
2019-01-26T04:42:52.648Z,75.47
2019-01-26T04:43:56.227Z,75.19
2019-01-26T04:45:00.000Z,75.47
2019-01-26T04:46:03.236Z,75.47
2019-01-26T04:47:06.622Z,75.40
2019-01-26T04:48:09.906Z,75.44
2019-01-26T04:49:13.192Z,74.78
2019-01-26T04:50:18.085Z,75.25
2019-01-26T04:51:21.762Z,74.36
2019-01-26T04:52:25.077Z,74.82
2019-01-26T04:53:28.356Z,75.55
2019-01-26T04:54:31.638Z,73.60
2019-01-26T04:55:34.921Z,73.35
2019-01-26T04:56:38.206Z,73.94
2019-01-26T04:57:41.530Z,74.33
2019-01-26T04:58:44.803Z,74.11
2019-01-26T04:59:48.091Z,74.29
2019-01-26T05:00:51.363Z,73.43
2019-01-26T05:01:54.645Z,72.65
2019-01-26T05:02:57.950Z,73.29
2019-01-26T05:04:01.230Z,74.25
2019-01-26T05:05:04.784Z,73.18
2019-01-26T05:06:08.099Z,72.92
2019-01-26T05:07:11.372Z,72.95
2019-01-26T05:08:14.796Z,73.80
2019-01-26T05:09:18.075Z,73.60
2019-01-26T05:10:22.386Z,73.81
2019-01-26T05:11:25.638Z,73.85
2019-01-26T05:12:28.914Z,73.47
2019-01-26T05:13:32.240Z,74.20
2019-01-26T05:14:35.991Z,73.93
2019-01-26T05:15:39.316Z,72.36
2019-01-26T05:16:42.929Z,73.12
2019-01-26T05:17:46.204Z,73.80
2019-01-26T05:18:49.507Z,73.93
2019-01-26T05:19:52.852Z,73.78
2019-01-26T05:20:56.134Z,73.23
2019-01-26T05:21:59.418Z,73.13
2019-01-26T05:23:02.699Z,72.64
2019-01-26T05:24:06.036Z,71.59
2019-01-26T05:25:09.319Z,72.02
2019-01-26T05:26:12.563Z,72.35
2019-01-26T05:27:16.209Z,72.15
2019-01-26T05:28:19.628Z,72.75
2019-01-26T05:29:22.941Z,73.03
2019-01-26T05:30:27.365Z,72.46
2019-01-26T05:31:30.987Z,72.35
2019-01-26T05:32:34.270Z,72.11
2019-01-26T05:33:37.554Z,72.37
2019-01-26T05:34:40.857Z,72.39
2019-01-26T05:35:44.141Z,72.17
2019-01-26T05:36:47.423Z,72.63
2019-01-26T05:37:50.714Z,71.60
2019-01-26T05:38:53.991Z,72.69
2019-01-26T05:39:57.299Z,72.82
2019-01-26T05:41:00.575Z,73.04
2019-01-26T05:42:03.861Z,72.37
2019-01-26T05:43:07.248Z,72.05
2019-01-26T05:44:10.526Z,72.29
2019-01-26T05:45:16.442Z,72.05
2019-01-26T05:46:19.737Z,72.55
2019-01-26T05:47:23.112Z,72.67
2019-01-26T05:48:26.398Z,72.21
2019-01-26T05:49:29.745Z,73.31
2019-01-26T05:50:33.063Z,73.11
2019-01-26T05:51:36.382Z,72.72
2019-01-26T05:52:39.654Z,71.81
2019-01-26T05:53:42.934Z,71.93
2019-01-26T05:54:46.230Z,72.02
2019-01-26T05:55:49.949Z,72.58
2019-01-26T05:56:53.234Z,72.50
2019-01-26T05:57:56.524Z,73.17
2019-01-26T05:58:59.813Z,72.57
2019-01-26T06:00:03.524Z,72.16
2019-01-26T06:01:06.838Z,72.80
2019-01-26T06:02:10.123Z,72.89
2019-01-26T06:03:13.401Z,71.99
2019-01-26T06:04:16.685Z,71.33
2019-01-26T06:05:19.964Z,71.42
2019-01-26T06:06:23.275Z,71.79
2019-01-26T06:07:26.558Z,72.05
2019-01-26T06:08:29.906Z,72.28
2019-01-26T06:09:33.176Z,71.83
2019-01-26T06:10:36.455Z,71.83
2019-01-26T06:11:39.767Z,72.31
2019-01-26T06:12:43.075Z,72.84
2019-01-26T06:13:46.362Z,73.32
2019-01-26T06:14:49.709Z,74.27
2019-01-26T06:15:52.993Z,77.23
2019-01-26T06:16:56.302Z,79.44
2019-01-26T06:17:59.574Z,78.55
2019-01-26T06:19:03.207Z,78.26
2019-01-26T06:20:09.803Z,76.25
2019-01-26T06:21:13.090Z,75.17
2019-01-26T06:22:16.486Z,71.59
2019-01-26T06:23:21.867Z,72.36
2019-01-26T06:24:25.153Z,74.21
2019-01-26T06:25:28.431Z,73.31
2019-01-26T06:26:31.724Z,74.26
2019-01-26T06:27:35.037Z,72.13
2019-01-26T06:28:38.312Z,71.52
2019-01-26T06:29:41.661Z,72.20
2019-01-26T06:30:44.951Z,72.29
2019-01-26T06:31:48.228Z,72.31
2019-01-26T06:32:51.659Z,72.57
2019-01-26T06:35:47.583Z,72.59
2019-01-26T06:36:59.101Z,72.20
2019-01-26T06:38:14.434Z,72.26
2019-01-26T06:39:32.024Z,73.00
2019-01-26T06:40:35.370Z,73.30
2019-01-26T06:41:38.665Z,73.21
2019-01-26T06:42:41.938Z,72.99
2019-01-26T06:43:45.337Z,73.62
2019-01-26T06:44:48.622Z,73.35
2019-01-26T06:45:51.908Z,73.54
2019-01-26T06:46:55.257Z,73.72
2019-01-26T06:48:02.180Z,73.89
2019-01-26T06:49:04.337Z,74.04
2019-01-26T06:50:10.941Z,73.66
2019-01-26T06:51:14.349Z,73.09
2019-01-26T06:52:17.694Z,73.36
2019-01-26T06:53:20.973Z,72.91
2019-01-26T06:54:24.292Z,73.33
2019-01-26T06:55:27.568Z,73.20
2019-01-26T06:56:30.848Z,73.40
2019-01-26T06:57:34.211Z,73.88
2019-01-26T06:58:37.890Z,73.23
2019-01-26T06:59:41.182Z,73.52
2019-01-26T07:00:44.466Z,73.44
2019-01-26T07:01:47.752Z,73.67
2019-01-26T07:02:51.143Z,73.56
2019-01-26T07:03:54.428Z,72.92
2019-01-26T07:04:59.740Z,73.08
2019-01-26T07:06:04.662Z,73.35
2019-01-26T07:07:10.849Z,73.28
2019-01-26T07:08:16.886Z,73.13
2019-01-26T07:09:20.170Z,73.55
2019-01-26T07:10:23.426Z,72.66
2019-01-26T07:11:26.709Z,73.11
2019-01-26T07:12:30.130Z,72.65
2019-01-26T07:13:33.450Z,72.87
2019-01-26T07:14:36.774Z,73.17
2019-01-26T07:15:40.014Z,73.51
2019-01-26T07:16:43.358Z,72.57
2019-01-26T07:17:56.273Z,72.09
2019-01-26T07:18:59.705Z,72.29
2019-01-26T07:20:03.450Z,72.60
2019-01-26T07:21:06.817Z,72.22
2019-01-26T07:22:10.163Z,72.09
2019-01-26T07:23:13.447Z,72.69
2019-01-26T07:24:16.760Z,72.52
2019-01-26T07:25:20.035Z,72.87
2019-01-26T07:26:23.309Z,72.90
2019-01-26T07:27:26.582Z,72.42
2019-01-26T07:28:29.932Z,72.48
2019-01-26T07:29:33.322Z,73.22
2019-01-26T07:30:36.683Z,71.97
2019-01-26T07:31:39.946Z,72.34
2019-01-26T07:32:43.534Z,73.29
2019-01-26T07:33:47.117Z,72.95
2019-01-26T07:34:50.423Z,72.53
2019-01-26T07:35:53.707Z,72.04
2019-01-26T07:36:57.011Z,72.46
2019-01-26T07:38:00.379Z,72.18
2019-01-26T07:39:05.457Z,72.32
2019-01-26T07:40:12.108Z,72.03
2019-01-26T07:41:15.392Z,71.64
2019-01-26T07:42:18.745Z,72.07
2019-01-26T07:43:22.014Z,72.44
2019-01-26T07:44:25.362Z,72.94
2019-01-26T07:45:28.689Z,71.84
2019-01-26T07:46:31.971Z,71.54
2019-01-26T07:47:35.267Z,70.43
2019-01-26T07:48:38.943Z,70.34
2019-01-26T07:49:42.349Z,69.88
2019-01-26T07:50:46.046Z,70.85
2019-01-26T07:51:49.339Z,71.10
2019-01-26T07:52:53.028Z,70.66
2019-01-26T07:53:56.628Z,70.46
2019-01-26T07:55:00.052Z,70.74
2019-01-26T07:56:03.360Z,70.29
2019-01-26T07:57:06.651Z,70.17
2019-01-26T07:58:10.002Z,69.45
2019-01-26T07:59:13.294Z,70.25
2019-01-26T08:00:19.488Z,69.92
2019-01-26T08:01:22.808Z,69.35
2019-01-26T08:02:26.097Z,68.99
2019-01-26T08:03:29.369Z,69.69
2019-01-26T08:04:32.715Z,69.66
2019-01-26T08:05:35.997Z,69.03
2019-01-26T08:06:39.670Z,68.64
2019-01-26T08:07:42.984Z,68.14
2019-01-26T08:08:46.267Z,69.26
2019-01-26T08:09:49.929Z,69.05
2019-01-26T08:10:53.210Z,68.50
2019-01-26T08:11:56.537Z,69.06
2019-01-26T08:12:59.823Z,68.62
2019-01-26T08:14:03.110Z,68.50
2019-01-26T08:15:12.473Z,68.26
2019-01-26T08:16:15.753Z,68.39
2019-01-26T08:17:19.060Z,69.02
2019-01-26T08:18:24.201Z,68.72
2019-01-26T08:19:27.385Z,68.29
2019-01-26T08:20:30.722Z,68.39
2019-01-26T08:21:34.079Z,68.83
2019-01-26T08:22:37.408Z,68.86
2019-01-26T08:23:41.014Z,68.50
2019-01-26T08:24:44.711Z,68.37
2019-01-26T08:25:48.062Z,69.06
2019-01-26T08:26:51.353Z,68.11
2019-01-26T08:27:54.675Z,68.76
2019-01-26T08:28:59.616Z,69.15
2019-01-26T08:30:03.152Z,68.35
2019-01-26T08:31:06.498Z,68.48
2019-01-26T08:32:09.777Z,68.36
2019-01-26T08:33:13.095Z,68.26
2019-01-26T08:34:16.490Z,68.41
2019-01-26T08:35:19.917Z,68.91
2019-01-26T08:36:23.587Z,68.87
2019-01-26T08:37:26.955Z,69.32
2019-01-26T08:38:30.269Z,69.07
2019-01-26T08:39:33.552Z,68.84
2019-01-26T08:40:36.846Z,67.66
2019-01-26T08:41:40.159Z,69.30
2019-01-26T08:42:43.563Z,68.72
2019-01-26T08:43:46.886Z,68.48
2019-01-26T08:44:50.470Z,67.91
2019-01-26T08:45:53.829Z,66.93
2019-01-26T08:46:57.117Z,67.43
2019-01-26T08:48:00.469Z,67.93
2019-01-26T08:49:03.800Z,67.93
2019-01-26T08:50:12.815Z,67.75
2019-01-26T08:51:16.170Z,67.44
2019-01-26T08:52:19.450Z,67.67
2019-01-26T08:53:22.883Z,67.45
2019-01-26T08:54:26.267Z,68.38
2019-01-26T08:55:29.560Z,68.03
2019-01-26T08:56:32.851Z,68.19
2019-01-26T08:57:36.134Z,67.05
2019-01-26T08:58:39.589Z,68.27
2019-01-26T08:59:42.914Z,68.12
2019-01-26T09:00:46.438Z,67.92
2019-01-26T09:01:51.360Z,69.15
2019-01-26T09:02:56.352Z,68.96
2019-01-26T09:04:03.965Z,68.45
2019-01-26T09:05:07.952Z,68.58
2019-01-26T09:06:12.879Z,68.26
2019-01-26T09:07:16.232Z,68.49
2019-01-26T09:08:19.670Z,68.27
2019-01-26T09:09:23.013Z,68.60
2019-01-26T09:10:26.404Z,68.21
2019-01-26T09:11:29.696Z,68.70
2019-01-26T09:12:32.982Z,68.41
2019-01-26T09:13:36.277Z,68.95
2019-01-26T09:14:39.563Z,68.60
2019-01-26T09:15:42.893Z,67.65
2019-01-26T09:16:46.173Z,67.57
2019-01-26T09:17:49.551Z,67.50
2019-01-26T09:18:52.931Z,67.62
2019-01-26T09:19:56.222Z,67.86
2019-01-26T09:20:59.550Z,68.25
2019-01-26T09:22:02.841Z,68.34
2019-01-26T09:23:06.135Z,68.43
2019-01-26T09:24:09.518Z,68.35
2019-01-26T09:25:13.058Z,67.76
2019-01-26T09:26:16.378Z,67.56
2019-01-26T09:27:19.673Z,68.21
2019-01-26T09:28:23.028Z,68.16
2019-01-26T09:29:26.382Z,68.55
2019-01-26T09:30:29.749Z,68.52
2019-01-26T09:31:33.073Z,68.41
2019-01-26T09:32:36.348Z,68.44
2019-01-26T09:33:39.649Z,67.94
2019-01-26T09:34:46.622Z,67.79
2019-01-26T09:35:50.316Z,67.57
2019-01-26T09:36:53.817Z,67.57
2019-01-26T09:37:57.165Z,67.68
2019-01-26T09:39:00.448Z,67.72
2019-01-26T09:40:06.536Z,67.98
2019-01-26T09:41:09.962Z,68.33
2019-01-26T09:42:13.279Z,67.83
2019-01-26T09:43:16.575Z,68.36
2019-01-26T09:44:20.207Z,67.74
2019-01-26T09:45:23.468Z,67.77
2019-01-26T09:46:26.762Z,67.52
2019-01-26T09:47:30.138Z,67.65
2019-01-26T09:48:33.840Z,66.38
2019-01-26T09:49:37.199Z,66.98
2019-01-26T09:50:40.573Z,67.03
2019-01-26T09:51:43.859Z,67.65
2019-01-26T09:52:47.177Z,68.90
2019-01-26T09:53:50.469Z,68.33
2019-01-26T09:54:57.049Z,68.28
2019-01-26T09:56:00.411Z,68.26
2019-01-26T09:57:03.735Z,68.34
2019-01-26T09:58:07.038Z,67.81
2019-01-26T09:59:10.506Z,68.03
2019-01-26T10:00:25.247Z,67.53
2019-01-26T10:01:28.525Z,67.98
2019-01-26T10:02:31.878Z,68.27
2019-01-26T10:03:35.362Z,67.86
2019-01-26T10:04:38.728Z,67.26
2019-01-26T10:05:42.095Z,67.74
2019-01-26T10:06:45.384Z,68.27
2019-01-26T10:07:49.513Z,67.79
2019-01-26T10:08:52.913Z,67.97
2019-01-26T10:09:56.287Z,67.18
2019-01-26T10:11:00.418Z,67.39
2019-01-26T10:12:03.724Z,67.76
2019-01-26T10:13:07.492Z,67.41
2019-01-26T10:14:10.814Z,67.25
2019-01-26T10:15:25.410Z,67.23
2019-01-26T10:16:28.867Z,68.01
2019-01-26T10:17:32.287Z,67.61
2019-01-26T10:18:35.921Z,67.67
2019-01-26T10:19:39.242Z,68.23
2019-01-26T10:20:43.569Z,67.77
2019-01-26T10:21:46.931Z,67.38
2019-01-26T10:22:50.228Z,67.95
2019-01-26T10:23:53.577Z,67.50
2019-01-26T10:24:56.868Z,67.85
2019-01-26T10:26:00.475Z,67.61
2019-01-26T10:27:03.871Z,67.94
2019-01-26T10:28:07.355Z,67.34
2019-01-26T10:29:10.633Z,67.69
2019-01-26T10:30:21.231Z,67.88
2019-01-26T10:31:24.522Z,67.60
2019-01-26T10:32:27.845Z,67.58
2019-01-26T10:33:31.588Z,68.17
2019-01-26T10:34:34.870Z,67.73
2019-01-26T10:35:42.457Z,67.87
2019-01-26T10:36:47.461Z,67.98
2019-01-26T10:37:50.782Z,66.65
2019-01-26T10:38:55.621Z,67.57
2019-01-26T10:40:00.457Z,67.09
2019-01-26T10:41:05.341Z,67.23
2019-01-26T10:42:10.274Z,67.31
2019-01-26T10:43:15.255Z,67.22
2019-01-26T10:44:20.307Z,67.82
2019-01-26T10:45:23.593Z,67.13
2019-01-26T10:46:27.205Z,67.57
2019-01-26T10:47:31.789Z,67.61
2019-01-26T10:48:35.074Z,67.42
2019-01-26T10:49:38.362Z,67.52
2019-01-26T10:50:41.743Z,66.22
2019-01-26T10:51:45.038Z,66.89
2019-01-26T10:52:48.321Z,66.68
2019-01-26T10:53:51.752Z,66.85
2019-01-26T10:54:55.181Z,66.63
2019-01-26T10:55:58.476Z,66.90
2019-01-26T10:57:03.751Z,67.00
2019-01-26T10:58:07.116Z,66.60
2019-01-26T10:59:10.464Z,66.94
2019-01-26T11:00:20.761Z,67.48
2019-01-26T11:01:24.079Z,66.93
2019-01-26T11:02:27.518Z,67.97
2019-01-26T11:03:30.770Z,67.02
2019-01-26T11:04:34.089Z,68.79
2019-01-26T11:05:37.374Z,66.95
2019-01-26T11:06:40.752Z,67.27
2019-01-26T11:07:44.043Z,67.04
2019-01-26T11:08:47.398Z,66.78
2019-01-26T11:09:51.621Z,65.60
2019-01-26T11:10:55.052Z,66.87
2019-01-26T11:11:58.368Z,67.16
2019-01-26T11:13:01.653Z,67.41
2019-01-26T11:14:04.937Z,66.30
2019-01-26T11:15:10.511Z,65.47
2019-01-26T11:16:13.862Z,66.19
2019-01-26T11:17:17.164Z,66.24
2019-01-26T11:18:20.719Z,65.40
2019-01-26T11:19:24.396Z,65.93
2019-01-26T11:20:27.880Z,65.18
2019-01-26T11:21:31.176Z,65.72
2019-01-26T11:22:34.461Z,64.21
2019-01-26T11:23:37.742Z,64.20
2019-01-26T11:24:41.037Z,65.28
2019-01-26T11:25:44.415Z,64.90
2019-01-26T11:26:49.345Z,65.37
2019-01-26T11:27:53.329Z,65.60
2019-01-26T11:28:58.455Z,65.34
2019-01-26T11:30:02.121Z,65.54
2019-01-26T11:31:05.562Z,65.23
2019-01-26T11:32:08.928Z,64.26
2019-01-26T11:33:12.213Z,64.71
2019-01-26T11:34:15.494Z,65.25
2019-01-26T11:35:21.587Z,64.29
2019-01-26T11:36:24.899Z,65.09
2019-01-26T11:37:28.197Z,65.63
2019-01-26T11:38:31.501Z,65.49
2019-01-26T11:39:34.854Z,64.92
2019-01-26T11:40:38.138Z,65.48
2019-01-26T11:41:41.495Z,65.68
2019-01-26T11:42:44.863Z,65.05
2019-01-26T11:43:48.144Z,64.70
2019-01-26T11:44:58.739Z,64.67
2019-01-26T11:46:03.987Z,65.17
2019-01-26T11:47:07.329Z,65.26
2019-01-26T11:48:18.264Z,64.84
2019-01-26T11:49:21.554Z,65.47
2019-01-26T11:50:26.485Z,65.49
2019-01-26T11:51:31.506Z,65.87
2019-01-26T11:52:34.828Z,65.13
2019-01-26T11:53:38.121Z,65.98
2019-01-26T11:54:43.040Z,65.30
2019-01-26T11:56:04.210Z,65.79
2019-01-26T11:57:09.520Z,65.09
2019-01-26T11:58:12.837Z,65.40
2019-01-26T11:59:17.397Z,65.87
2019-01-26T12:00:38.623Z,65.17
2019-01-26T12:01:52.682Z,64.83
2019-01-26T12:02:57.644Z,65.52
2019-01-26T12:04:02.605Z,65.66
2019-01-26T12:05:07.503Z,65.58
2019-01-26T12:06:12.434Z,66.61
2019-01-26T12:07:15.716Z,66.25
2019-01-26T12:08:19.009Z,66.74
2019-01-26T12:09:22.332Z,66.57
2019-01-26T12:10:25.613Z,66.82
2019-01-26T12:11:28.915Z,65.76
2019-01-26T12:12:32.212Z,66.04
2019-01-26T12:13:35.911Z,66.53
2019-01-26T12:14:39.379Z,66.57
2019-01-26T12:15:42.665Z,66.37
2019-01-26T12:16:45.951Z,66.46
2019-01-26T12:17:49.306Z,65.51
2019-01-26T12:18:52.593Z,64.55
2019-01-26T12:19:55.912Z,64.40
2019-01-26T12:20:59.224Z,63.46
2019-01-26T12:22:02.518Z,63.75
2019-01-26T12:23:05.800Z,64.06
2019-01-26T12:24:09.098Z,64.34
2019-01-26T12:25:12.426Z,63.06
2019-01-26T12:26:15.712Z,64.30
2019-01-26T12:27:19.006Z,63.89
2019-01-26T12:28:22.295Z,63.09
2019-01-26T12:29:25.659Z,63.03
2019-01-26T12:30:29.057Z,64.15
2019-01-26T12:31:32.344Z,63.91
2019-01-26T12:32:35.636Z,64.31
2019-01-26T12:33:38.936Z,64.48
2019-01-26T12:34:42.606Z,64.30
2019-01-26T12:35:45.911Z,64.24
2019-01-26T12:36:49.211Z,64.47
2019-01-26T12:37:52.568Z,64.54
2019-01-26T12:38:55.863Z,64.79
2019-01-26T12:39:59.169Z,65.29
2019-01-26T12:41:02.492Z,65.50
2019-01-26T12:42:07.426Z,65.16
2019-01-26T12:43:10.998Z,65.94
2019-01-26T12:44:14.301Z,65.01
2019-01-26T12:45:21.642Z,64.84
2019-01-26T12:46:25.031Z,65.25
2019-01-26T12:47:28.314Z,64.36
2019-01-26T12:48:31.633Z,65.81
2019-01-26T12:49:34.996Z,65.12
2019-01-26T12:50:38.353Z,65.59
2019-01-26T12:51:41.685Z,65.48
2019-01-26T12:52:44.989Z,66.08
2019-01-26T12:53:48.713Z,65.21
2019-01-26T12:54:52.013Z,65.77
2019-01-26T12:55:55.298Z,65.25
2019-01-26T12:56:58.706Z,64.73
2019-01-26T12:58:02.022Z,65.16
2019-01-26T12:59:05.311Z,65.46
2019-01-26T13:00:14.490Z,65.18
2019-01-26T13:01:17.777Z,65.34
2019-01-26T13:02:21.116Z,65.36
2019-01-26T13:03:24.471Z,64.30
2019-01-26T13:04:27.764Z,64.32
2019-01-26T13:05:31.044Z,64.28
2019-01-26T13:06:34.332Z,64.13
2019-01-26T13:07:37.657Z,63.66
2019-01-26T13:08:41.379Z,64.94
2019-01-26T13:09:45.637Z,64.44
2019-01-26T13:10:52.318Z,64.59
2019-01-26T13:11:55.704Z,63.53
2019-01-26T13:12:59.950Z,64.09
2019-01-26T13:14:03.234Z,64.23
2019-01-26T13:15:15.014Z,64.15
2019-01-26T13:16:13.793Z,63.83
2019-01-26T13:17:17.163Z,63.35
2019-01-26T13:18:20.567Z,63.15
2019-01-26T13:19:23.847Z,63.30
2019-01-26T13:20:27.137Z,62.98
2019-01-26T13:21:30.430Z,63.00
2019-01-26T13:22:33.799Z,64.27
2019-01-26T13:23:37.199Z,64.23
2019-01-26T13:24:40.487Z,63.82
2019-01-26T13:25:43.800Z,64.23
2019-01-26T13:26:47.104Z,63.94
2019-01-26T13:27:50.404Z,65.15
2019-01-26T13:28:55.445Z,64.61
2019-01-26T13:30:00.377Z,64.45
2019-01-26T13:31:03.662Z,64.62
2019-01-26T13:32:07.007Z,64.50
2019-01-26T13:33:10.331Z,64.79
2019-01-26T13:34:13.625Z,64.33
2019-01-26T13:35:16.914Z,64.31
2019-01-26T13:36:21.919Z,64.65
2019-01-26T13:37:25.203Z,64.47
2019-01-26T13:38:28.679Z,64.27
2019-01-26T13:39:32.048Z,64.56
2019-01-26T13:40:36.594Z,64.45
2019-01-26T13:41:39.950Z,64.34
2019-01-26T13:42:43.246Z,64.27